Time;durP1;ratioP1;P1;durP2;ratioP2;P2;SDS_P1;SDS_P2;PMS_P1;PMS_P2;Temp;Humidity;BMP_temperature;BMP_pressure;BME280_temperature;BME280_humidity;BME280_pressure;Samples;Min_cycle;Max_cycle;Signal;HPM_P1;HPM_P2
2022/04/14 00:00:21;;;;;;;23.70;16.98;;;11.90;99.90;;;;;;4990291;28;20118;-73
2022/04/14 00:02:46;;;;;;;25.33;16.70;;;11.90;99.90;;;;;;4999107;28;20057;-73
2022/04/14 00:05:12;;;;;;;22.42;15.93;;;11.90;99.90;;;;;;4985607;28;20052;-73
2022/04/14 00:07:39;;;;;;;18.55;15.63;;;11.90;99.90;;;;;;4999927;28;20123;-73
2022/04/14 00:10:06;;;;;;;21.65;17.27;;;11.80;99.90;;;;;;4987505;28;20085;-73
2022/04/14 00:12:32;;;;;;;21.58;17.35;;;11.70;99.90;;;;;;4964331;28;20051;-73
2022/04/14 00:14:58;;;;;;;21.60;18.08;;;11.50;99.90;;;;;;4994312;28;20091;-74
2022/04/14 00:17:24;;;;;;;24.95;17.80;;;11.50;99.90;;;;;;4997484;28;20219;-73
2022/04/14 00:19:50;;;;;;;21.95;16.60;;;11.50;99.90;;;;;;4977355;28;20080;-73
2022/04/14 00:22:16;;;;;;;22.02;16.85;;;11.40;99.90;;;;;;4989697;28;20123;-73
2022/04/14 00:24:42;;;;;;;21.60;15.98;;;11.40;99.90;;;;;;4995392;28;20068;-73
2022/04/14 00:27:08;;;;;;;26.48;18.55;;;11.30;99.90;;;;;;4976331;28;20481;-73
2022/04/14 00:29:34;;;;;;;29.60;18.25;;;11.30;99.90;;;;;;4986929;28;20110;-73
2022/04/14 00:32:00;;;;;;;22.23;17.17;;;11.40;99.90;;;;;;4991156;28;20061;-73
2022/04/14 00:34:26;;;;;;;24.55;16.52;;;11.30;99.90;;;;;;4952989;28;20559;-73
2022/04/14 00:36:51;;;;;;;27.27;18.10;;;11.30;99.90;;;;;;4994654;28;20767;-73
2022/04/14 00:39:17;;;;;;;22.45;18.65;;;11.30;99.90;;;;;;4989194;28;20049;-73
2022/04/14 00:41:43;;;;;;;27.73;21.77;;;11.30;99.90;;;;;;4976691;28;20049;-73
2022/04/14 00:44:09;;;;;;;23.05;17.52;;;11.30;99.90;;;;;;4992852;28;20110;-73
2022/04/14 00:46:35;;;;;;;27.65;21.23;;;11.20;99.90;;;;;;4993665;28;20040;-73
2022/04/14 00:49:01;;;;;;;30.17;22.20;;;11.20;99.90;;;;;;4990512;28;20045;-73
2022/04/14 00:51:27;;;;;;;25.92;19.70;;;11.10;99.90;;;;;;4993837;28;20107;-73
2022/04/14 00:53:53;;;;;;;24.52;17.35;;;11.20;99.90;;;;;;4994771;28;20110;-74
2022/04/14 00:56:18;;;;;;;21.70;16.77;;;11.20;99.90;;;;;;4994868;28;20404;-73
2022/04/14 00:58:44;;;;;;;32.22;22.60;;;11.20;99.90;;;;;;4998176;28;20067;-73
2022/04/14 01:01:12;;;;;;;26.67;17.92;;;11.10;99.90;;;;;;4973164;28;20074;-73
2022/04/14 01:03:39;;;;;;;22.30;17.05;;;11.20;99.90;;;;;;4978297;28;20056;-73
2022/04/14 01:06:05;;;;;;;24.35;17.90;;;11.10;99.90;;;;;;4993741;28;20403;-73
2022/04/14 01:08:35;;;;;;;27.55;20.42;;;11.10;99.90;;;;;;4993652;28;20037;-73
2022/04/14 01:11:02;;;;;;;28.75;21.90;;;11.00;99.90;;;;;;4993105;28;20476;-73
2022/04/14 01:13:28;;;;;;;27.38;23.05;;;11.10;99.90;;;;;;4995354;28;20111;-73
2022/04/14 01:15:59;;;;;;;29.80;22.77;;;11.10;99.90;;;;;;4991880;28;20041;-74
2022/04/14 01:18:25;;;;;;;28.10;22.95;;;11.10;99.90;;;;;;4994585;28;20126;-73
2022/04/14 01:20:52;;;;;;;26.80;22.13;;;11.10;99.90;;;;;;4978680;28;20052;-73
2022/04/14 01:23:40;;;;;;;30.88;23.25;;;11.00;99.90;;;;;;4997281;28;20045;-73
2022/04/14 01:26:06;;;;;;;29.42;24.27;;;11.00;99.90;;;;;;4998062;28;20060;-73
2022/04/14 01:28:32;;;;;;;30.88;24.75;;;10.90;99.90;;;;;;4981201;28;20063;-73
2022/04/14 01:30:58;;;;;;;28.42;23.58;;;11.00;99.90;;;;;;4993908;28;20060;-73
2022/04/14 01:33:24;;;;;;;31.15;22.48;;;10.90;99.90;;;;;;4993121;28;20045;-73
2022/04/14 01:35:50;;;;;;;29.58;22.58;;;10.90;99.90;;;;;;4974960;28;20095;-73
2022/04/14 01:38:16;;;;;;;28.55;22.63;;;10.90;99.90;;;;;;4994585;28;20679;-73
2022/04/14 01:40:42;;;;;;;27.25;22.85;;;10.90;99.90;;;;;;4990448;28;20049;-73
2022/04/14 01:43:08;;;;;;;30.08;23.13;;;10.90;99.90;;;;;;4972745;28;20428;-73
2022/04/14 01:45:34;;;;;;;30.08;22.95;;;11.00;99.90;;;;;;4975043;28;20049;-73
2022/04/14 01:47:59;;;;;;;30.52;24.45;;;10.90;99.90;;;;;;4994767;28;20045;-73
2022/04/14 01:50:25;;;;;;;30.33;24.10;;;10.90;99.90;;;;;;4994687;28;20041;-73
2022/04/14 01:52:51;;;;;;;31.75;23.35;;;10.90;99.90;;;;;;4990189;28;20042;-73
2022/04/14 01:55:17;;;;;;;35.65;25.95;;;10.80;99.90;;;;;;4973955;28;20045;-73
2022/04/14 01:57:44;;;;;;;43.40;24.42;;;10.80;99.90;;;;;;4990753;28;20159;-73
2022/04/14 02:00:13;;;;;;;35.45;25.02;;;10.80;99.90;;;;;;4990066;28;20065;-74
2022/04/14 02:02:39;;;;;;;38.03;25.73;;;10.80;99.90;;;;;;4958222;28;20052;-73
2022/04/14 02:05:06;;;;;;;37.58;25.10;;;10.80;99.90;;;;;;4976817;28;20128;-73
2022/04/14 02:07:32;;;;;;;41.63;24.80;;;10.70;99.90;;;;;;4994243;28;20057;-73
2022/04/14 02:09:58;;;;;;;43.08;24.23;;;10.70;99.90;;;;;;4989501;28;20046;-73
2022/04/14 02:12:24;;;;;;;38.42;25.13;;;10.70;99.90;;;;;;4993309;28;20042;-73
2022/04/14 02:14:50;;;;;;;32.03;24.45;;;10.70;99.90;;;;;;4992856;28;20053;-72
2022/04/14 02:17:16;;;;;;;40.42;25.92;;;10.80;99.90;;;;;;4992801;28;20563;-73
2022/04/14 02:19:42;;;;;;;31.85;24.60;;;10.80;99.90;;;;;;4996209;28;20088;-73
2022/04/14 02:22:08;;;;;;;34.20;26.55;;;10.70;99.90;;;;;;4996042;28;20412;-73
2022/04/14 02:24:33;;;;;;;36.63;27.70;;;10.60;99.90;;;;;;5002394;28;20033;-73
2022/04/14 02:26:59;;;;;;;40.88;30.23;;;10.50;99.90;;;;;;4993574;28;21019;-73
2022/04/14 02:29:25;;;;;;;41.90;30.23;;;10.50;99.90;;;;;;4978527;28;20104;-73
2022/04/14 02:31:55;;;;;;;54.90;30.63;;;10.50;99.90;;;;;;4976622;28;20065;-73
2022/04/14 02:34:20;;;;;;;45.03;29.30;;;10.50;99.90;;;;;;4966520;28;20052;-73
2022/04/14 02:36:46;;;;;;;55.72;29.20;;;10.40;99.90;;;;;;4987241;28;20044;-73
2022/04/14 02:39:13;;;;;;;70.53;28.95;;;10.40;99.90;;;;;;4985914;28;20080;-73
2022/04/14 02:41:46;;;;;;;57.47;28.33;;;10.40;99.90;;;;;;4992354;28;20492;-73
2022/04/14 02:44:12;;;;;;;37.85;26.17;;;10.40;99.90;;;;;;4995075;28;20049;-73
2022/04/14 02:46:38;;;;;;;37.38;28.98;;;10.30;99.90;;;;;;4997478;28;20805;-73
2022/04/14 02:49:03;;;;;;;35.55;27.10;;;10.30;99.90;;;;;;4995840;28;20111;-73
2022/04/14 02:51:30;;;;;;;35.08;27.13;;;10.30;99.90;;;;;;4994483;28;20049;-73
2022/04/14 02:53:55;;;;;;;34.88;25.92;;;10.40;99.90;;;;;;4994977;28;20057;-73
2022/04/14 02:56:22;;;;;;;33.53;27.00;;;10.40;99.90;;;;;;4993672;28;20063;-73
2022/04/14 02:58:48;;;;;;;37.67;28.25;;;10.50;99.90;;;;;;4993939;28;20507;-73
2022/04/14 03:01:14;;;;;;;35.80;27.15;;;10.40;99.90;;;;;;4993896;28;20037;-73
2022/04/14 03:03:40;;;;;;;35.25;27.88;;;10.30;99.90;;;;;;4978676;28;20059;-73
2022/04/14 03:06:06;;;;;;;35.45;27.83;;;10.30;99.90;;;;;;4975656;28;20054;-73
2022/04/14 03:08:32;;;;;;;37.63;28.75;;;10.40;99.90;;;;;;4991914;28;20037;-73
2022/04/14 03:10:57;;;;;;;34.03;27.38;;;10.50;99.90;;;;;;4996196;28;20053;-73
2022/04/14 03:13:24;;;;;;;40.28;31.10;;;10.40;99.90;;;;;;4993806;28;20041;-74
2022/04/14 03:15:51;;;;;;;42.08;30.27;;;10.50;99.90;;;;;;4991193;28;20185;-73
2022/04/14 03:18:17;;;;;;;46.15;30.75;;;10.50;99.90;;;;;;4994836;28;20123;-73
2022/04/14 03:20:43;;;;;;;48.17;31.30;;;10.50;99.90;;;;;;4994043;28;21136;-73
2022/04/14 03:23:11;;;;;;;41.70;30.38;;;10.50;99.90;;;;;;4997751;28;20037;-73
2022/04/14 03:25:38;;;;;;;44.50;30.42;;;10.50;99.90;;;;;;4995522;28;20515;-73
2022/04/14 03:28:04;;;;;;;40.95;31.70;;;10.50;99.90;;;;;;4997365;28;20681;-73
2022/04/14 03:30:30;;;;;;;44.38;31.92;;;10.40;99.90;;;;;;4996027;28;20041;-73
2022/04/14 03:32:56;;;;;;;41.72;32.88;;;10.50;99.90;;;;;;4996659;28;20950;-73
2022/04/14 03:35:22;;;;;;;40.53;31.85;;;10.40;99.90;;;;;;5005486;28;20122;-73
2022/04/14 03:37:47;;;;;;;38.92;32.05;;;10.40;99.90;;;;;;4994214;28;20060;-73
2022/04/14 03:40:14;;;;;;;40.40;31.48;;;10.40;99.90;;;;;;4992922;28;20052;-73
2022/04/14 03:42:39;;;;;;;45.30;35.13;;;10.40;99.90;;;;;;4980790;28;20110;-73
2022/04/14 03:45:06;;;;;;;43.78;33.03;;;10.40;99.90;;;;;;4980683;28;20057;-74
2022/04/14 03:47:32;;;;;;;47.33;34.50;;;10.40;99.90;;;;;;4995053;28;20052;-73
2022/04/14 03:49:58;;;;;;;46.08;32.75;;;10.40;99.90;;;;;;4998838;28;20053;-73
2022/04/14 03:52:24;;;;;;;46.53;33.80;;;10.30;99.90;;;;;;4994565;28;20208;-73
2022/04/14 03:54:50;;;;;;;39.63;32.60;;;10.30;99.90;;;;;;4976101;28;20817;-73
2022/04/14 03:57:16;;;;;;;41.22;32.95;;;10.30;99.90;;;;;;4993547;28;20057;-73
2022/04/14 03:59:42;;;;;;;46.88;34.03;;;10.30;99.90;;;;;;4975051;28;20052;-73
2022/04/14 04:02:08;;;;;;;48.50;36.55;;;10.20;99.90;;;;;;4995105;28;20049;-73
2022/04/14 04:04:33;;;;;;;53.22;37.63;;;10.30;99.90;;;;;;4991881;28;20049;-73
2022/04/14 04:07:00;;;;;;;48.03;34.47;;;10.30;99.90;;;;;;4989815;28;20060;-73
2022/04/14 04:09:32;;;;;;;51.00;36.40;;;10.30;99.90;;;;;;4993813;28;20084;-73
2022/04/14 04:11:58;;;;;;;48.75;35.80;;;10.30;99.90;;;;;;4975275;28;20052;-74
2022/04/14 04:14:24;;;;;;;53.22;35.05;;;10.20;99.90;;;;;;4996846;28;20045;-73
2022/04/14 04:16:50;;;;;;;46.58;34.75;;;10.00;99.90;;;;;;4992560;28;20049;-73
2022/04/14 04:19:16;;;;;;;48.80;35.28;;;9.90;99.90;;;;;;4991610;28;20072;-73
2022/04/14 04:21:42;;;;;;;51.45;35.67;;;10.00;99.90;;;;;;4991177;28;20052;-73
2022/04/14 04:24:09;;;;;;;49.78;36.00;;;9.90;99.90;;;;;;4998062;28;20046;-74
2022/04/14 04:26:35;;;;;;;49.08;36.28;;;9.90;99.90;;;;;;4975540;28;20049;-73
2022/04/14 04:29:01;;;;;;;48.95;37.28;;;10.00;99.90;;;;;;4993627;28;20050;-73
2022/04/14 04:31:27;;;;;;;52.25;38.28;;;10.10;99.90;;;;;;4979210;28;20049;-73
2022/04/14 04:33:53;;;;;;;53.65;38.72;;;10.10;99.90;;;;;;4994498;28;20071;-73
2022/04/14 04:36:19;;;;;;;53.88;37.53;;;10.10;99.90;;;;;;4996537;28;20974;-73
2022/04/14 04:38:45;;;;;;;45.90;34.95;;;10.00;99.90;;;;;;4993211;28;20052;-73
2022/04/14 04:41:10;;;;;;;47.53;36.17;;;10.00;99.90;;;;;;4987848;28;20045;-73
2022/04/14 04:43:36;;;;;;;54.15;37.67;;;10.00;99.90;;;;;;4986991;28;20411;-73
2022/04/14 04:46:02;;;;;;;48.05;36.50;;;10.00;99.90;;;;;;4993059;28;20683;-73
2022/04/14 04:48:28;;;;;;;52.97;37.25;;;10.00;99.90;;;;;;4995819;28;20481;-73
2022/04/14 04:50:54;;;;;;;43.90;34.78;;;9.90;99.90;;;;;;4977071;28;20087;-73
2022/04/14 04:53:20;;;;;;;46.38;34.45;;;9.90;99.90;;;;;;4962902;28;20165;-73
2022/04/14 04:55:46;;;;;;;45.60;35.40;;;9.80;99.90;;;;;;4977215;28;20119;-73
2022/04/14 04:58:12;;;;;;;40.42;32.85;;;9.80;99.90;;;;;;4996464;28;20049;-73
2022/04/14 05:00:38;;;;;;;47.25;34.55;;;9.80;99.90;;;;;;4977614;28;20081;-73
2022/04/14 05:03:09;;;;;;;53.55;38.22;;;9.80;99.90;;;;;;4976369;28;20063;-74
2022/04/14 05:05:35;;;;;;;46.25;33.92;;;9.80;99.90;;;;;;4970426;28;20356;-73
2022/04/14 05:08:02;;;;;;;54.38;35.17;;;9.80;99.90;;;;;;4972371;28;20048;-74
2022/04/14 05:10:28;;;;;;;38.05;29.10;;;9.70;99.90;;;;;;4970864;28;20067;-73
2022/04/14 05:12:54;;;;;;;40.28;29.67;;;9.70;99.90;;;;;;4976516;28;20051;-74
2022/04/14 05:15:21;;;;;;;109.75;26.95;;;9.60;99.90;;;;;;4993502;28;20048;-74
2022/04/14 05:17:47;;;;;;;88.40;26.25;;;9.50;99.90;;;;;;4951689;28;20041;-72
2022/04/14 05:20:13;;;;;;;166.45;26.38;;;9.30;99.90;;;;;;4991179;28;20048;-73
2022/04/14 05:22:38;;;;;;;266.05;28.00;;;9.30;99.90;;;;;;4992810;28;20052;-73
2022/04/14 05:25:05;;;;;;;73.15;30.60;;;9.30;99.90;;;;;;4987752;28;20045;-73
2022/04/14 05:27:30;;;;;;;42.72;30.67;;;9.10;99.90;;;;;;4969497;28;20609;-74
2022/04/14 05:29:56;;;;;;;42.00;27.85;;;9.20;99.90;;;;;;4998744;28;20045;-74
2022/04/14 05:32:23;;;;;;;72.55;31.00;;;9.30;99.90;;;;;;4975343;28;20049;-74
2022/04/14 05:34:49;;;;;;;39.35;29.20;;;9.20;99.90;;;;;;4980211;28;20068;-73
2022/04/14 05:37:15;;;;;;;37.28;29.55;;;9.20;99.90;;;;;;4993844;28;20053;-74
2022/04/14 05:39:41;;;;;;;44.08;32.00;;;9.30;99.90;;;;;;4975866;28;20091;-74
2022/04/14 05:42:07;;;;;;;44.50;32.35;;;9.30;99.90;;;;;;4976087;28;20060;-74
2022/04/14 05:44:33;;;;;;;41.95;31.65;;;9.20;99.90;;;;;;4989439;28;20034;-73
2022/04/14 05:46:59;;;;;;;41.20;30.30;;;9.20;99.90;;;;;;4997146;28;20067;-73
2022/04/14 05:49:24;;;;;;;48.92;32.90;;;9.30;99.90;;;;;;4998441;28;20554;-73
2022/04/14 05:51:50;;;;;;;60.80;31.60;;;9.50;99.90;;;;;;4979431;28;20057;-73
2022/04/14 05:54:16;;;;;;;49.70;33.67;;;9.50;99.90;;;;;;4996381;28;20660;-74
2022/04/14 05:56:42;;;;;;;49.42;36.20;;;9.70;99.90;;;;;;5001497;28;20045;-73
2022/04/14 05:59:16;;;;;;;51.28;36.13;;;9.80;99.90;;;;;;5001107;28;20046;-72
2022/04/14 06:01:43;;;;;;;51.65;36.63;;;10.00;99.90;;;;;;5005980;28;20052;-72
2022/04/14 06:04:08;;;;;;;51.45;35.53;;;10.20;99.90;;;;;;5002268;28;20511;-74
2022/04/14 06:06:34;;;;;;;57.40;34.67;;;10.30;99.90;;;;;;5002864;28;20133;-74
2022/04/14 06:09:00;;;;;;;44.15;35.20;;;10.50;99.90;;;;;;4981494;28;20493;-74
2022/04/14 06:11:26;;;;;;;45.58;34.58;;;10.70;99.90;;;;;;5000825;28;20067;-73
2022/04/14 06:13:52;;;;;;;52.05;38.03;;;10.80;99.90;;;;;;5000231;28;20052;-73
2022/04/14 06:16:18;;;;;;;48.08;35.78;;;11.10;99.90;;;;;;4998611;28;20064;-73
2022/04/14 06:18:44;;;;;;;48.67;37.28;;;11.40;99.90;;;;;;4996435;28;20383;-74
2022/04/14 06:21:10;;;;;;;51.03;38.72;;;11.50;99.90;;;;;;4981353;28;20052;-74
2022/04/14 06:23:36;;;;;;;51.10;38.35;;;11.70;99.90;;;;;;4981080;28;20053;-74
2022/04/14 06:26:04;;;;;;;49.90;36.80;;;11.90;99.90;;;;;;4980773;28;20061;-73
2022/04/14 06:28:31;;;;;;;44.72;36.33;;;12.00;99.90;;;;;;4997223;28;20036;-73
2022/04/14 06:30:57;;;;;;;47.38;36.65;;;12.20;99.90;;;;;;5003741;28;20056;-74
2022/04/14 06:33:23;;;;;;;47.17;35.95;;;12.30;99.90;;;;;;4981706;28;20061;-74
2022/04/14 06:35:49;;;;;;;44.35;35.88;;;12.50;99.90;;;;;;4996825;28;20131;-74
2022/04/14 06:38:16;;;;;;;45.15;36.53;;;12.70;99.90;;;;;;4996416;28;20573;-74
2022/04/14 06:40:42;;;;;;;45.20;35.83;;;12.80;99.90;;;;;;4976824;28;20063;-74
2022/04/14 06:43:08;;;;;;;39.55;33.80;;;13.00;99.90;;;;;;4974835;28;20457;-74
2022/04/14 06:45:34;;;;;;;40.28;35.08;;;13.00;99.90;;;;;;4994822;28;20048;-74
2022/04/14 06:48:00;;;;;;;39.25;34.50;;;13.20;99.90;;;;;;4996252;28;20064;-74
2022/04/14 06:50:27;;;;;;;42.10;35.67;;;13.40;99.90;;;;;;4996319;28;20122;-73
2022/04/14 06:52:53;;;;;;;39.22;34.33;;;13.60;99.90;;;;;;4979384;28;20045;-74
2022/04/14 06:55:21;;;;;;;39.17;34.97;;;13.70;99.90;;;;;;4992809;28;20049;-74
2022/04/14 06:57:53;;;;;;;48.85;35.97;;;13.80;99.90;;;;;;5000020;28;20045;-74
2022/04/14 07:00:21;;;;;;;39.97;34.70;;;14.00;99.90;;;;;;4978739;28;20056;-74
2022/04/14 07:02:48;;;;;;;39.63;34.70;;;14.00;99.90;;;;;;4999434;28;20073;-74
2022/04/14 07:05:15;;;;;;;42.78;35.83;;;14.10;99.90;;;;;;4994594;28;20056;-74
2022/04/14 07:07:40;;;;;;;40.58;36.10;;;14.30;99.90;;;;;;5001283;28;20292;-74
2022/04/14 07:10:06;;;;;;;41.95;35.28;;;14.50;99.90;;;;;;5001478;28;20049;-74
2022/04/14 07:12:32;;;;;;;38.83;34.63;;;14.40;99.90;;;;;;4999924;28;20045;-73
2022/04/14 07:15:00;;;;;;;42.90;34.65;;;14.50;99.90;;;;;;4983926;28;20063;-74
2022/04/14 07:17:26;;;;;;;37.50;32.70;;;14.60;99.90;;;;;;4997828;28;20053;-73
2022/04/14 07:19:52;;;;;;;41.15;35.20;;;14.70;99.90;;;;;;4997679;28;20050;-74
2022/04/14 07:22:24;;;;;;;40.92;36.50;;;14.80;99.90;;;;;;4974457;28;20049;-74
2022/04/14 07:24:50;;;;;;;38.35;33.53;;;15.00;99.90;;;;;;4992699;28;20041;-74
2022/04/14 07:27:18;;;;;;;39.65;34.85;;;15.10;99.90;;;;;;4976822;28;20736;-74
2022/04/14 07:29:46;;;;;;;39.70;34.08;;;15.30;99.90;;;;;;4991142;28;20476;-74
2022/04/14 07:32:14;;;;;;;36.33;32.17;;;15.40;99.90;;;;;;4993946;28;20058;-74
2022/04/14 07:34:40;;;;;;;37.90;31.63;;;15.60;99.90;;;;;;4993384;28;20095;-74
2022/04/14 07:37:06;;;;;;;36.58;30.90;;;15.50;99.90;;;;;;4988885;28;20037;-73
2022/04/14 07:39:32;;;;;;;39.30;31.33;;;15.70;99.90;;;;;;4992071;28;20040;-73
2022/04/14 07:41:58;;;;;;;33.30;28.98;;;15.70;99.90;;;;;;4996256;28;20113;-74
2022/04/14 07:44:24;;;;;;;34.22;29.95;;;15.60;99.90;;;;;;4974803;28;20053;-74
2022/04/14 07:46:50;;;;;;;32.15;28.15;;;15.80;99.90;;;;;;4991803;28;20060;-73
2022/04/14 07:49:16;;;;;;;37.35;29.90;;;15.80;99.90;;;;;;4993853;28;20045;-74
2022/04/14 07:51:42;;;;;;;33.72;28.70;;;15.90;99.90;;;;;;4977051;28;20547;-73
2022/04/14 07:54:07;;;;;;;34.70;28.98;;;16.10;99.90;;;;;;4994090;28;20049;-74
2022/04/14 07:56:33;;;;;;;32.67;28.40;;;16.20;99.90;;;;;;4990582;28;20060;-74
2022/04/14 07:59:00;;;;;;;32.35;27.95;;;16.40;99.90;;;;;;4975857;28;20628;-74
2022/04/14 08:01:26;;;;;;;29.50;25.77;;;16.30;99.90;;;;;;4988762;28;20845;-74
2022/04/14 08:03:52;;;;;;;33.45;26.55;;;16.40;99.90;;;;;;4987491;28;20053;-75
2022/04/14 08:06:18;;;;;;;28.55;24.58;;;16.50;99.90;;;;;;4989105;28;20045;-74
2022/04/14 08:08:44;;;;;;;27.92;24.73;;;16.60;99.90;;;;;;4988386;28;20622;-74
2022/04/14 08:11:10;;;;;;;30.02;25.45;;;16.70;99.90;;;;;;4991670;28;20111;-73
2022/04/14 08:13:41;;;;;;;30.20;23.83;;;16.60;99.90;;;;;;4992300;28;20075;-73
2022/04/14 08:16:10;;;;;;;28.58;23.75;;;16.70;99.90;;;;;;4989870;28;20156;-74
2022/04/14 08:18:37;;;;;;;27.42;23.15;;;17.10;99.90;;;;;;4993242;28;20049;-74
2022/04/14 08:21:03;;;;;;;30.50;24.25;;;17.20;99.90;;;;;;4996505;28;20056;-74
2022/04/14 08:23:31;;;;;;;29.08;22.65;;;17.30;99.90;;;;;;4996063;28;20049;-74
2022/04/14 08:25:57;;;;;;;22.70;20.05;;;17.40;99.90;;;;;;4994677;28;20045;-75
2022/04/14 08:28:22;;;;;;;21.73;19.20;;;17.50;99.90;;;;;;4974304;28;20530;-74
2022/04/14 08:30:48;;;;;;;23.40;19.02;;;17.60;99.90;;;;;;4979392;28;20168;-75
2022/04/14 08:33:18;;;;;;;23.35;19.85;;;17.50;99.90;;;;;;4990368;28;21388;-74
2022/04/14 08:35:45;;;;;;;22.60;19.83;;;17.60;99.90;;;;;;4976061;28;20095;-74
2022/04/14 08:38:11;;;;;;;24.38;19.90;;;17.70;99.90;;;;;;4966941;28;20050;-74
2022/04/14 08:40:39;;;;;;;24.58;20.75;;;17.80;99.90;;;;;;4971841;28;20058;-75
2022/04/14 08:43:07;;;;;;;25.15;19.30;;;18.00;99.90;;;;;;4976590;28;21336;-74
2022/04/14 08:45:44;;;;;;;24.23;19.90;;;18.00;99.90;;;;;;4958711;28;20084;-74
2022/04/14 08:48:15;;;;;;;25.65;19.50;;;18.20;99.90;;;;;;4973256;28;20045;-75
2022/04/14 08:50:54;;;;;;;24.17;19.60;;;18.20;99.90;;;;;;4971565;28;20057;-74
2022/04/14 08:53:24;;;;;;;23.63;18.88;;;18.30;99.90;;;;;;4974678;28;20046;-75
2022/04/14 08:55:51;;;;;;;27.25;18.52;;;18.40;99.90;;;;;;4970994;28;20719;-74
2022/04/14 08:58:26;;;;;;;21.00;16.77;;;18.40;99.90;;;;;;4966401;28;20049;-74
2022/04/14 09:00:54;;;;;;;21.83;17.20;;;18.40;99.90;;;;;;4972639;28;20606;-73
2022/04/14 09:03:20;;;;;;;21.58;17.60;;;18.40;99.90;;;;;;4969960;28;20315;-74
2022/04/14 09:05:46;;;;;;;20.83;17.38;;;18.60;99.90;;;;;;4973102;28;20041;-75
2022/04/14 09:08:12;;;;;;;20.38;16.98;;;18.60;99.90;;;;;;4974684;28;20049;-74
2022/04/14 09:10:39;;;;;;;22.92;18.27;;;18.90;99.90;;;;;;4974028;28;20123;-75
2022/04/14 09:13:05;;;;;;;18.35;16.33;;;18.90;99.90;;;;;;4968185;28;20081;-74
2022/04/14 09:15:31;;;;;;;19.30;15.98;;;18.80;99.90;;;;;;4974126;28;20045;-74
2022/04/14 09:17:57;;;;;;;19.52;17.42;;;19.00;99.90;;;;;;4975614;28;20049;-74
2022/04/14 09:20:37;;;;;;;18.65;15.90;;;18.90;99.90;;;;;;4970352;28;20057;-74
2022/04/14 09:23:09;;;;;;;20.42;15.35;;;18.90;99.90;;;;;;4970775;28;20099;-75
2022/04/14 09:25:35;;;;;;;17.77;14.80;;;19.20;99.90;;;;;;4974381;28;20529;-75
2022/04/14 09:28:15;;;;;;;17.50;15.15;;;19.00;99.90;;;;;;4983315;28;20104;-75
2022/04/14 09:31:06;;;;;;;20.63;15.05;;;19.30;99.90;;;;;;5001459;28;20196;-74
2022/04/14 09:33:44;;;;;;;18.80;15.13;;;19.10;99.90;;;;;;4996374;28;20578;-74
2022/04/14 09:36:13;;;;;;;18.60;15.68;;;19.30;99.90;;;;;;4992223;28;20124;-74
2022/04/14 09:38:52;;;;;;;20.10;16.33;;;19.60;99.90;;;;;;4994989;28;20077;-74
2022/04/14 09:41:50;;;;;;;19.33;16.42;;;19.60;99.90;;;;;;4999503;28;20500;-75
2022/04/14 09:44:16;;;;;;;18.02;16.13;;;19.90;99.90;;;;;;4967689;28;20129;-74
2022/04/14 09:46:44;;;;;;;18.35;16.00;;;20.00;99.90;;;;;;4984137;28;20358;-75
2022/04/14 09:49:12;;;;;;;20.40;16.83;;;20.20;99.90;;;;;;4985540;28;21092;-75
2022/04/14 09:51:46;;;;;;;18.35;16.30;;;19.80;99.90;;;;;;4985597;28;20194;-75
2022/04/14 09:54:17;;;;;;;19.15;15.65;;;20.10;99.90;;;;;;4967497;28;20122;-74
2022/04/14 09:56:46;;;;;;;18.23;15.85;;;20.30;99.90;;;;;;4981988;28;20128;-74
2022/04/14 09:59:15;;;;;;;18.85;16.80;;;20.30;99.90;;;;;;4950992;28;20069;-75
2022/04/14 10:01:42;;;;;;;19.77;16.23;;;20.30;99.90;;;;;;4969748;28;20477;-74
2022/04/14 10:04:31;;;;;;;17.77;15.80;;;20.50;99.90;;;;;;4978296;28;20147;-74
2022/04/14 10:07:03;;;;;;;15.77;14.07;;;20.40;99.90;;;;;;4985886;28;20052;-74
2022/04/14 10:09:30;;;;;;;16.95;15.10;;;20.30;99.90;;;;;;4983063;28;20053;-74
2022/04/14 10:11:56;;;;;;;17.33;15.52;;;20.10;99.90;;;;;;4985363;28;20061;-74
2022/04/14 10:14:25;;;;;;;15.85;14.18;;;19.70;99.90;;;;;;4997749;28;20087;-73
2022/04/14 10:16:51;;;;;;;16.17;14.18;;;19.30;99.90;;;;;;4991178;28;20103;-75
2022/04/14 10:19:21;;;;;;;16.98;15.18;;;19.10;99.90;;;;;;4981029;28;20131;-74
2022/04/14 10:21:47;;;;;;;17.48;15.45;;;19.20;99.90;;;;;;4995487;28;20052;-75
2022/04/14 10:24:14;;;;;;;16.33;14.27;;;19.50;99.90;;;;;;4997120;28;20049;-75
2022/04/14 10:26:43;;;;;;;15.15;12.73;;;19.90;99.90;;;;;;4980730;28;20072;-74
2022/04/14 10:29:12;;;;;;;17.48;14.18;;;20.10;99.90;;;;;;4968198;28;20676;-74
2022/04/14 10:31:40;;;;;;;14.40;12.90;;;20.20;99.90;;;;;;4969518;28;20060;-75
2022/04/14 10:34:08;;;;;;;15.65;13.52;;;20.10;99.90;;;;;;4978796;28;20055;-75
2022/04/14 10:36:42;;;;;;;16.77;14.63;;;20.00;99.90;;;;;;4977905;28;20731;-75
2022/04/14 10:39:13;;;;;;;18.35;14.57;;;19.80;99.90;;;;;;4999457;28;20049;-75
2022/04/14 10:41:51;;;;;;;16.42;14.32;;;19.40;99.90;;;;;;4980477;28;20059;-75
2022/04/14 10:44:21;;;;;;;17.70;15.43;;;19.30;99.90;;;;;;4985536;28;20053;-75
2022/04/14 10:46:50;;;;;;;16.65;14.93;;;19.80;99.90;;;;;;5005453;28;20096;-75
2022/04/14 10:49:24;;;;;;;18.20;15.60;;;19.30;99.90;;;;;;4999275;28;20060;-75
2022/04/14 10:51:54;;;;;;;12.98;11.50;;;19.60;99.90;;;;;;5007410;28;20123;-74
2022/04/14 10:54:20;;;;;;;13.45;12.05;;;19.90;99.90;;;;;;5008321;28;20547;-75
2022/04/14 10:56:49;;;;;;;16.75;13.23;;;20.30;99.90;;;;;;5005588;28;20053;-77
2022/04/14 10:59:31;;;;;;;13.13;10.10;;;20.10;99.90;;;;;;5004768;28;20056;-74
2022/04/14 11:02:02;;;;;;;17.30;10.50;;;20.00;99.90;;;;;;5007878;28;20050;-75
2022/04/14 11:04:41;;;;;;;14.10;11.93;;;20.30;99.90;;;;;;4988196;28;20081;-74
2022/04/14 11:07:14;;;;;;;13.30;11.75;;;19.90;99.90;;;;;;4983731;28;20889;-75
2022/04/14 11:09:57;;;;;;;12.52;10.02;;;19.90;99.90;;;;;;4975976;28;20067;-75
2022/04/14 11:12:41;;;;;;;13.32;10.57;;;19.70;99.90;;;;;;4997483;28;20052;-74
2022/04/14 11:15:09;;;;;;;17.02;10.40;;;19.80;99.90;;;;;;4996177;28;20045;-74
2022/04/14 11:17:38;;;;;;;15.20;11.13;;;19.80;99.90;;;;;;4994438;28;20196;-74
2022/04/14 11:20:35;;;;;;;11.95;9.73;;;19.50;99.90;;;;;;4978411;28;20053;-75
2022/04/14 11:23:21;;;;;;;13.35;10.07;;;19.40;99.90;;;;;;4976751;28;20781;-74
2022/04/14 11:25:52;;;;;;;15.40;9.63;;;19.00;99.90;;;;;;4986317;28;20092;-75
2022/04/14 11:28:20;;;;;;;14.77;9.52;;;18.90;99.90;;;;;;4977968;28;20466;-74
2022/04/14 11:30:48;;;;;;;14.95;9.00;;;19.20;99.90;;;;;;4989598;28;20049;-74
2022/04/14 11:33:20;;;;;;;12.57;9.75;;;19.60;99.90;;;;;;4995019;28;20070;-74
2022/04/14 11:35:47;;;;;;;11.38;9.15;;;19.40;99.90;;;;;;4993059;28;20059;-74
2022/04/14 11:38:54;;;;;;;9.40;7.22;;;19.00;99.90;;;;;;4994011;28;20140;-75
2022/04/14 11:41:41;;;;;;;11.45;8.27;;;19.40;99.90;;;;;;5004084;28;20065;-74
2022/04/14 11:44:19;;;;;;;11.18;7.93;;;19.40;99.90;;;;;;4986770;28;20049;-75
2022/04/14 11:46:54;;;;;;;10.25;8.10;;;19.70;99.90;;;;;;4983532;28;20076;-74
2022/04/14 11:49:22;;;;;;;11.68;7.60;;;19.00;99.90;;;;;;4986513;28;20037;-75
2022/04/14 11:51:53;;;;;;;10.82;7.85;;;19.30;99.90;;;;;;5006606;28;20084;-75
2022/04/14 11:54:21;;;;;;;10.13;7.40;;;19.30;99.90;;;;;;5004540;28;20053;-73
2022/04/14 11:56:52;;;;;;;10.63;7.65;;;19.90;99.90;;;;;;5005170;28;20037;-74
2022/04/14 11:59:19;;;;;;;9.98;6.90;;;20.20;99.90;;;;;;5007348;28;20045;-75
2022/04/14 12:01:50;;;;;;;12.07;7.75;;;20.60;99.90;;;;;;5004324;28;20644;-74
2022/04/14 12:04:16;;;;;;;25.17;8.70;;;19.90;99.90;;;;;;5012491;28;20807;-74
2022/04/14 12:06:52;;;;;;;26.38;8.80;;;19.30;99.90;;;;;;5003227;28;20045;-74
2022/04/14 12:09:20;;;;;;;11.15;5.95;;;19.00;99.90;;;;;;5001492;28;20057;-74
2022/04/14 12:11:46;;;;;;;9.20;5.25;;;18.70;99.90;;;;;;5002659;28;20045;-74
2022/04/14 12:14:13;;;;;;;11.48;6.32;;;18.80;99.90;;;;;;4989153;28;20058;-75
2022/04/14 12:16:52;;;;;;;8.48;4.97;;;19.10;99.90;;;;;;5005105;28;20825;-74
2022/04/14 12:19:20;;;;;;;6.90;4.30;;;19.30;99.90;;;;;;4998054;28;20064;-74
2022/04/14 12:22:06;;;;;;;9.52;5.35;;;19.80;99.90;;;;;;4978949;28;20056;-75
2022/04/14 12:24:32;;;;;;;8.35;4.38;;;20.20;99.90;;;;;;4995433;28;20053;-74
2022/04/14 12:26:58;;;;;;;8.02;4.32;;;20.20;99.00;;;;;;5000886;28;20249;-74
2022/04/14 12:29:25;;;;;;;7.55;3.92;;;19.80;95.40;;;;;;4998488;28;20043;-75
2022/04/14 12:31:55;;;;;;;7.63;4.10;;;19.30;89.80;;;;;;5000320;28;20829;-74